メインページ
METAR-TAF:

METAR-TAF

空港 :

昆明, 中華人民共和国

昆明長水国際空港

緯度: 25-01N, 経度: 102-41E, 海抜: 1892m

現時点の気象観測

当レポートは36分前の09:00(UTC)に作成
西/南西の風 19kt
気温 24°C
湿度 31%
気圧 1017 hPa
視程10km以上
高度2600ftの雲はほとんどない

METAR: ZPPP 290900Z 24010MPS 9999 FEW026 24/06 Q1017 NOSIG

時間: 17:36 (09:36 UTC)

予報

当レポートは8時間28分前の01:08(UTC)に作成
予報は29日の 06時(UTC)から 30日の 06時(UTC)まで有効
南西の風 19kt、最大29ktの突風を伴う
視程10km以上
高度2300ftの雲は散在している
高度3600ftの千切れ雲あり
29日の 11時(UTC)から 29日の 12時(UTC)まで徐々に
南西の風 10kt

TAF: ZPPP 290108Z 2906/3006 23010G15MPS 9999 SCT023 BKN036 TX22/2908Z TN12/2923Z BECMG 2911/2912 23005MPS

4,000以上の空港の気象観測と天気予報(METAR報とTAF報)

利用可能な観測所は地図上に黄色い丸と赤い丸で示す。

丸の上にカーソルを重ねると観測所名を参照できる。

次にクリックすると気象観測と天気予報を参照できる。

マップの切り替え:黒色「×」印の緑ボタンをクリックして拡大、「-」印の緑ボタンをクリックして縮小、緑色の三角印をクリックして隣りの地図に切り替え


METAR-TAF: